Главная страница
METAR-TAF:

METAR-TAF

Аэропорты :

Лишинга, Мозамбик

широта: 13-18S, долгота: 035-14E, высота над уровнем моря: 1364 м

METAR: отсутствует

Время: 16:26 (14:26 UTC)

Прогноз

Эта сводка был подготовлена 4 часа и 26 минут назад, в 10:00 UTC
Прогноз действительный с 22-го 12 UTC до 23-го 12 UTC
Ветер 10 Узел от восточно-северо-восточный
Видимость 10 км и более
Рассеянная облачность на высоте 1700 фута
небольшая облачность на высоте 2000 фута, Кучево-дождевые.
Вероятность 30% :
временами
С 22-го 12 UTC до 22-го 18 UTC
Видимость: 4000 м
Отдельные облака на высоте 600 фута
Сплошная облачность на высоте 1500 фута
гроза, дождь
изменения
С 22-го 18 UTC до 22-го 20 UTC
Ветер 10 Узел от южный
изменения
С 23-го 06 UTC до 23-го 08 UTC
Ветер 7 Узел от северный

TAF: FQLC 221000Z 2212/2312 06010KT 9999 BKN017 FEW020CB TX26/2213Z TN18/2303Z PROB30 TEMPO 2212/2218 4000 TSRA SCT006 OVC015 BECMG 2218/2220 19010KT BECMG 2306/2308 35007KT

Метеонаблюдения и прогнозы для более 4000 аэропортов (сводки METAR и TAF).

Имеющиеся станции представлены на карте желтыми и красными точками.

Чтобы увидеть название станции, наведите на нее мышь.

Затем щелкните, чтобы увидеть метеонаблюдения и метеопрогнозы.

Управление картой: чтобы увеличить масштаб, щелкните зеленые кнопки с черным крестиком; чтобы уменьшить масштаб, щелкните зеленую кнопку с тире; для просмотра соседних карт щелкайте зеленые стрелки.


METAR-TAF: